Airfield :
LOGIN :

Register | Disclaimer

   EN    FR    IT 

 










Legend :    VFR   Marginal VFR   IFR   Intensive IFR   Very Intensive IFR
Visi :
Ceiling :
>= 8 km
>= 3000ft
5 to 8 km
1000 to 3000 ft
1500m to 5 km
500 to 1000 ft
800 to 1500m
200 to 500 ft
< 800m
< 200 ft
Symbols :   Thunderstorms  Fog  Heavy snow  Heavy precipitations  Wind > 20 kt
SIGMETs :     Misc.  Thunderstorms  Icing  Turbulence  Mountain Waves  Volcanic Ashes






- Airport Elevation : 36 ft
- IATA code : RIX


EVRA - Riga

CURRENT METAR :
  • 051720Z 19011KT 9999 SCT014 BKN017 OVC026 20/17 Q1003 NOSIG

EXPIRED METARs :
  • 051650Z 19011KT 9999 SCT017 OVC041 19/17 Q1004 NOSIG
  • 051620Z 20013KT 170V230 9999 SCT019CB BKN029 OVC040 20/17 Q1004 NOSIG
  • 051550Z 21009KT 9999 SCT023CB BKN030 OVC042 20/17 Q1004 NOSIG
  • 051520Z 20011KT 9999 SCT025CB BKN034 OVC046 20/16 Q1005 NOSIG
  • 051450Z 19009KT 170V230 9999 FEW024CB BKN039 OVC049 21/17 Q1005 NOSIG

TAF TAF EVRA
Valid from the 05 at 18:00 until the 06 at 18:00 UTC


051700Z 0518/0618 21010KT 9999 BKN025
TEMPO 0518/0603 20015G25KT SCT015CB



MET'MAP, your aeronautical weather chart ! - Copyright ORBIFLY December 2007 - Disclaimer

ORBIFLY MET'MAP TEAM :

Programming & Development : Alexandra Zaïnal
Concept & original design : Baudouin d'Aumeries
Assistance for programming : Marc-Olivier Méhu
Technical & hardware support : Manuel Goepfert

Contact : metmap@orbifly.com




SOURCES & CREDITS :

   NOAA